createdAt,value
2022-08-09T00:04:00.837Z,102101.32
2022-08-09T00:09:01.613Z,102102.64
2022-08-09T00:14:09.686Z,102097.56
2022-08-09T00:19:18.448Z,102100.47
2022-08-09T00:24:24.383Z,102095.72
2022-08-09T00:30:10.396Z,102100.88
2022-08-09T00:34:37.827Z,102095.25
2022-08-09T00:40:09.405Z,102093.25
2022-08-09T00:44:52.130Z,102095.48
2022-08-09T00:49:59.855Z,102101.72
2022-08-09T00:55:07.854Z,102098.20
2022-08-09T01:00:21.080Z,102098.47
2022-08-09T01:05:51.566Z,102092.95
2022-08-09T01:10:57.760Z,102086.75
2022-08-09T01:16:06.382Z,102100.81
2022-08-09T01:21:24.843Z,102097.60
2022-08-09T01:26:46.341Z,102099.61
2022-08-09T01:32:29.868Z,102104.67
2022-08-09T01:37:03.432Z,102105.25
2022-08-09T01:42:11.125Z,102107.27
2022-08-09T01:47:18.406Z,102102.59
2022-08-09T01:52:26.094Z,102108.25
2022-08-09T01:57:44.217Z,102105.16
2022-08-09T02:02:49.982Z,102104.92
2022-08-09T02:08:40.946Z,102105.52
2022-08-09T02:13:17.429Z,102113.78
2022-08-09T02:18:27.114Z,102109.95
2022-08-09T02:23:43.241Z,102117.05
2022-08-09T02:28:56.277Z,102102.35
2022-08-09T02:34:11.117Z,102109.07
2022-08-09T02:39:33.754Z,102112.28
2022-08-09T02:44:40.377Z,102118.94
2022-08-09T02:50:01.124Z,102118.13
2022-08-09T02:55:20.265Z,102121.75
2022-08-09T03:00:25.466Z,102127.09
2022-08-09T03:05:22.519Z,102129.77
2022-08-09T03:10:30.154Z,102144.00
2022-08-09T03:15:40.513Z,102138.41
2022-08-09T03:20:45.139Z,102131.14
2022-08-09T03:25:57.809Z,102133.95
2022-08-09T03:31:00.565Z,102133.01
2022-08-09T03:36:12.847Z,102128.52
2022-08-09T03:41:18.376Z,102140.14
2022-08-09T03:46:27.409Z,102141.43
2022-08-09T03:51:55.924Z,102139.31
2022-08-09T03:56:41.975Z,102144.63
2022-08-09T04:01:50.377Z,102157.69
2022-08-09T04:06:57.947Z,102160.69
2022-08-09T04:12:30.422Z,102151.98
2022-08-09T04:17:20.148Z,102152.84
2022-08-09T04:22:28.015Z,102158.94
2022-08-09T04:27:34.039Z,102158.98
2022-08-09T04:32:45.836Z,102159.30
2022-08-09T04:37:49.989Z,102168.47
2022-08-09T04:42:55.449Z,102174.77
2022-08-09T04:48:09.840Z,102173.34
2022-08-09T04:53:11.668Z,102179.89
2022-08-09T04:58:17.969Z,102180.61
2022-08-09T05:03:40.125Z,102187.36
2022-08-09T05:08:33.392Z,102184.05
2022-08-09T05:13:40.831Z,102190.45
2022-08-09T05:18:58.625Z,102189.63
2022-08-09T05:24:01.443Z,102199.47
2022-08-09T05:29:03.336Z,102203.05
2022-08-09T05:34:09.550Z,102198.25
2022-08-09T05:39:28.230Z,102210.66
2022-08-09T05:44:29.185Z,102211.30
2022-08-09T05:50:23.870Z,102212.75
2022-08-09T05:54:39.654Z,102217.91
2022-08-09T05:59:46.364Z,102218.71
2022-08-09T06:04:52.017Z,102216.78
2022-08-09T06:10:02.284Z,102224.61
2022-08-09T06:15:10.084Z,102223.61
2022-08-09T06:20:18.265Z,102215.39
2022-08-09T06:25:23.356Z,102225.28
2022-08-09T06:30:29.222Z,102224.38
2022-08-09T06:35:56.482Z,102226.11
2022-08-09T06:40:42.856Z,102232.83
2022-08-09T06:46:06.056Z,102232.86
2022-08-09T06:50:55.720Z,102239.13
2022-08-09T06:56:03.324Z,102241.39
2022-08-09T07:01:08.898Z,102244.84
2022-08-09T07:06:14.426Z,102240.66
2022-08-09T07:11:23.495Z,102247.10
2022-08-09T07:16:42.347Z,102239.73
2022-08-09T07:21:34.631Z,102243.20
2022-08-09T07:26:42.141Z,102240.52
2022-08-09T07:31:49.453Z,102245.56
2022-08-09T07:36:55.189Z,102246.59
2022-08-09T07:42:00.679Z,102252.64
2022-08-09T07:47:07.882Z,102249.16
2022-08-09T07:52:17.795Z,102256.45
2022-08-09T07:57:22.417Z,102253.19
2022-08-09T08:02:29.779Z,102253.66
2022-08-09T08:08:43.002Z,102258.50
2022-08-09T08:12:46.967Z,102258.12
2022-08-09T08:17:58.590Z,102251.41
2022-08-09T08:23:03.865Z,102255.88
2022-08-09T08:28:09.807Z,102251.13
2022-08-09T08:33:23.066Z,102255.91
2022-08-09T08:38:24.865Z,102250.92
2022-08-09T08:43:31.216Z,102257.81
2022-08-09T08:48:38.060Z,102258.20
2022-08-09T08:54:03.246Z,102264.66
2022-08-09T08:58:53.649Z,102260.48
2022-08-09T09:04:01.133Z,102266.11
2022-08-09T09:09:21.214Z,102268.55
2022-08-09T09:14:18.631Z,102257.02
2022-08-09T09:19:40.931Z,102259.43
2022-08-09T09:24:34.565Z,102263.66
2022-08-09T09:30:14.312Z,102262.83
2022-08-09T09:35:15.955Z,102266.06
2022-08-09T09:40:20.776Z,102264.00
2022-08-09T09:45:29.475Z,102269.70
2022-08-09T09:50:51.364Z,102271.39
2022-08-09T09:56:04.147Z,102267.53
2022-08-09T10:01:37.869Z,102268.70
2022-08-09T10:06:19.893Z,102272.69
2022-08-09T10:12:00.778Z,102267.73
2022-08-09T10:16:57.200Z,102272.80
2022-08-09T10:21:50.327Z,102261.97
2022-08-09T10:26:57.376Z,102257.25
2022-08-09T10:37:13.856Z,102257.55
2022-08-09T10:42:19.148Z,102256.79
2022-08-09T10:48:17.164Z,102254.09
2022-08-09T10:53:02.081Z,102238.75
2022-08-09T10:58:10.853Z,102237.85
2022-08-09T11:03:27.851Z,102236.30
2022-08-09T11:08:47.898Z,102234.91
2022-08-09T11:14:11.325Z,102231.51
2022-08-09T11:19:21.653Z,102225.82
2022-08-09T11:24:30.388Z,102231.73
2022-08-09T11:30:05.595Z,102228.02
2022-08-09T11:35:09.505Z,102233.97
2022-08-09T11:40:19.597Z,102227.25
2022-08-09T11:45:42.749Z,102227.74
2022-08-09T11:52:56.432Z,102222.41
2022-08-09T11:56:21.095Z,102216.05
2022-08-09T12:02:16.975Z,102226.92
2022-08-09T12:06:56.449Z,102221.09
2022-08-09T12:12:13.159Z,102223.39
2022-08-09T12:17:27.998Z,102227.80
2022-08-09T12:22:26.130Z,102230.53
2022-08-09T12:29:13.475Z,102216.11
2022-08-09T12:32:40.740Z,102217.78
2022-08-09T12:37:51.655Z,102219.03
2022-08-09T12:42:54.557Z,102216.42
2022-08-09T12:48:00.355Z,102211.30
2022-08-09T12:53:17.911Z,102217.73
2022-08-09T12:58:24.360Z,102219.36
2022-08-09T13:03:57.255Z,102212.25
2022-08-09T13:08:40.823Z,102210.64
2022-08-09T13:14:41.637Z,102201.77
2022-08-09T13:18:54.780Z,102194.36
2022-08-09T13:24:42.392Z,102204.58
2022-08-09T13:29:18.476Z,102212.83
2022-08-09T13:34:24.490Z,102196.35
2022-08-09T13:41:50.541Z,102204.36
2022-08-09T13:44:42.116Z,102204.52
2022-08-09T13:49:56.459Z,102200.25
2022-08-09T13:54:59.249Z,102199.95
2022-08-09T14:00:08.029Z,102200.04
2022-08-09T14:05:57.201Z,102197.14
2022-08-09T14:10:37.748Z,102196.77
2022-08-09T14:16:10.628Z,102178.73
2022-08-09T14:20:38.493Z,102193.11
2022-08-09T14:25:44.754Z,102183.27
2022-08-09T14:30:52.269Z,102184.22
2022-08-09T14:36:20.304Z,102196.23
2022-08-09T14:41:24.009Z,102199.11
2022-08-09T14:46:54.413Z,102184.53
2022-08-09T14:51:24.043Z,102192.41
2022-08-09T14:56:30.331Z,102190.52
2022-08-09T15:01:35.936Z,102202.97
2022-08-09T15:06:41.562Z,102184.35
2022-08-09T15:11:51.020Z,102182.55
2022-08-09T15:16:56.685Z,102181.78
2022-08-09T15:22:03.081Z,102184.98
2022-08-09T15:27:08.737Z,102180.08
2022-08-09T15:32:29.515Z,102178.28
2022-08-09T15:37:37.047Z,102189.66
2022-08-09T15:42:44.611Z,102193.73
2022-08-09T15:48:01.861Z,102184.89
2022-08-09T15:53:06.649Z,102178.39
2022-08-09T15:58:05.060Z,102186.41
2022-08-09T16:03:13.911Z,102185.11
2022-08-09T16:08:30.362Z,102186.14
2022-08-09T16:14:04.895Z,102184.86
2022-08-09T16:18:35.820Z,102184.92
2022-08-09T16:23:44.428Z,102190.40
2022-08-09T16:28:49.007Z,102182.89
2022-08-09T16:33:56.299Z,102183.33
2022-08-09T16:39:04.376Z,102180.05
2022-08-09T16:44:13.352Z,102172.69
2022-08-09T16:50:26.815Z,102167.78
2022-08-09T16:54:33.979Z,102168.91
2022-08-09T16:59:34.996Z,102163.48
2022-08-09T17:04:41.418Z,102172.16
2022-08-09T17:09:47.967Z,102169.96
2022-08-09T17:14:57.685Z,102174.41
2022-08-09T17:20:32.341Z,102180.94
2022-08-09T17:25:11.641Z,102181.64
2022-08-09T17:30:20.422Z,102187.91
2022-08-09T17:35:25.399Z,102192.12
2022-08-09T17:40:32.678Z,102195.09
2022-08-09T17:46:04.184Z,102193.94
2022-08-09T17:50:56.010Z,102198.66
2022-08-09T17:55:59.661Z,102198.53
2022-08-09T18:01:01.010Z,102200.78
2022-08-09T18:06:14.841Z,102212.63
2022-08-09T18:11:16.305Z,102225.70
2022-08-09T18:16:30.205Z,102220.81
2022-08-09T18:21:31.897Z,102226.47
2022-08-09T18:26:46.385Z,102226.70
2022-08-09T18:31:51.193Z,102230.10
2022-08-09T18:36:54.517Z,102229.38
2022-08-09T18:42:01.247Z,102241.98
2022-08-09T18:47:12.668Z,102232.84
2022-08-09T18:52:24.639Z,102239.41
2022-08-09T18:57:23.961Z,102238.89
2022-08-09T19:02:32.655Z,102254.77
2022-08-09T19:07:38.359Z,102250.70
2022-08-09T19:12:50.217Z,102250.91
2022-08-09T19:17:55.043Z,102256.30
2022-08-09T19:22:59.131Z,102254.85
2022-08-09T19:28:07.769Z,102264.58
2022-08-09T19:33:19.671Z,102263.35
2022-08-09T19:38:22.270Z,102266.02
2022-08-09T19:44:00.616Z,102277.05
2022-08-09T19:49:01.720Z,102280.98
2022-08-09T19:53:45.485Z,102277.61
2022-08-09T19:59:18.421Z,102271.05
2022-08-09T20:04:11.124Z,102271.16
2022-08-09T20:09:04.972Z,102272.00
2022-08-09T20:14:15.141Z,102270.50
2022-08-09T20:19:43.002Z,102270.59
2022-08-09T20:24:33.852Z,102265.97
2022-08-09T20:29:38.750Z,102270.86
2022-08-09T20:34:44.672Z,102269.80
2022-08-09T20:40:15.320Z,102279.84
2022-08-09T20:45:56.380Z,102278.69
2022-08-09T20:50:08.306Z,102281.77
2022-08-09T20:55:14.355Z,102284.42
2022-08-09T21:00:31.044Z,102283.33
2022-08-09T21:05:51.262Z,102291.27
2022-08-09T21:10:36.134Z,102281.62
2022-08-09T21:15:54.284Z,102291.38
2022-08-09T21:20:50.273Z,102289.48
2022-08-09T21:25:59.655Z,102296.53
2022-08-09T21:31:16.326Z,102304.48
2022-08-09T21:36:14.997Z,102310.83
2022-08-09T21:41:22.312Z,102298.70
2022-08-09T21:46:29.512Z,102300.20
2022-08-09T21:51:43.757Z,102302.16
2022-08-09T21:56:54.251Z,102297.19
2022-08-09T22:02:00.713Z,102292.73
2022-08-09T22:07:02.132Z,102293.05
2022-08-09T22:12:18.011Z,102292.39
2022-08-09T22:17:14.908Z,102292.33
2022-08-09T22:22:22.214Z,102292.13
2022-08-09T22:27:28.066Z,102298.56
2022-08-09T22:32:35.362Z,102293.69
2022-08-09T22:37:42.095Z,102300.91
2022-08-09T22:42:47.830Z,102294.26
2022-08-09T22:48:16.876Z,102293.59
2022-08-09T22:53:03.224Z,102288.38
2022-08-09T22:58:09.323Z,102283.87
2022-08-09T23:03:16.846Z,102281.57
2022-08-09T23:08:41.959Z,102280.23
2022-08-09T23:13:52.648Z,102276.80
2022-08-09T23:18:58.130Z,102277.98
2022-08-09T23:24:06.301Z,102284.81
2022-08-09T23:29:14.011Z,102288.97
2022-08-09T23:34:19.746Z,102285.59
2022-08-09T23:39:25.373Z,102287.05
2022-08-09T23:44:30.956Z,102287.53
2022-08-09T23:49:36.518Z,102284.57
2022-08-09T23:54:44.399Z,102287.96
